Terminal Aerodrome Forecast
Issued by NWS

Home | Current Version | Previous Version | Text Only | Print | Product List | Glossary On
Versions: 1 2 3 4 5 6 7 8 9 10 11 12 13 14 15 16 17 18 19 20 21 22 23 24 25 26 27 28 29 30 31
000
FTUS45 KLKN 110520
TAFEKO
TAF
KEKO 110520Z 1106/1206 VRB06KT P6SM SCT200
      TEMPO 1114/1117 1SM BR OVC002
     FM111700 VRB03KT 3SM BR SCT004
     FM111900 VRB06KT P6SM SCT120 BKN200=

USA.gov is the U.S. government's official web portal to all federal, state and local government web resources and services.